Time;durP1;ratioP1;P1;durP2;ratioP2;P2;SDS_P1;SDS_P2;PMS_P1;PMS_P2;Temp;Humidity;BMP_temperature;BMP_pressure;BME280_temperature;BME280_humidity;BME280_pressure;Samples;Min_cycle;Max_cycle;Signal;HPM_P1;HPM_P2
2024/02/07 04:05:09;;;;;;;0.95;0.60;;;10.10;99.90;;;;;;5345243;23;20251;31
2024/02/07 04:07:36;;;;;;;1.65;1.17;;;10.10;99.90;;;;;;4900922;29;19926;-81
2024/02/07 04:10:09;;;;;;;3.80;1.00;;;10.20;99.90;;;;;;4900514;29;20047;-82
2024/02/07 05:15:53;;;;;;;0.43;0.43;;;9.90;99.90;;;;;;4901741;29;20067;-81
2024/02/07 05:18:20;;;;;;;1.35;0.98;;;9.90;99.90;;;;;;4906105;29;20480;-79
2024/02/07 05:20:49;;;;;;;5.28;2.15;;;9.90;99.90;;;;;;4909631;29;20476;-81
2024/02/07 05:23:22;;;;;;;0.40;0.40;;;9.80;99.90;;;;;;4903267;29;20377;-82
2024/02/07 05:25:48;;;;;;;0.22;0.22;;;9.90;99.90;;;;;;4910854;29;20040;-81
2024/02/07 05:28:15;;;;;;;0.80;0.63;;;9.90;99.90;;;;;;4907011;29;20037;-82
2024/02/07 05:30:41;;;;;;;0.82;0.57;;;10.00;99.90;;;;;;4907088;29;20048;-82
2024/02/07 05:33:08;;;;;;;0.20;0.20;;;9.90;99.90;;;;;;4912933;29;20040;-83
2024/02/07 05:35:34;;;;;;;1.40;1.30;;;9.90;99.90;;;;;;4911190;29;20393;-82
2024/02/07 05:38:02;;;;;;;0.60;0.60;;;9.90;99.90;;;;;;4908276;29;20036;-81
2024/02/07 05:40:28;;;;;;;0.52;0.52;;;10.00;99.90;;;;;;4905203;29;20383;-81
2024/02/07 05:42:54;;;;;;;1.50;1.05;;;10.00;99.90;;;;;;4902160;29;20044;-82
2024/02/07 05:45:20;;;;;;;1.15;1.05;;;10.00;99.90;;;;;;4912308;29;20032;-83
2024/02/07 05:47:46;;;;;;;1.55;0.40;;;10.00;99.90;;;;;;4896064;29;20040;-81
2024/02/07 05:50:15;;;;;;;0.75;0.75;;;10.00;99.90;;;;;;4910646;29;20039;-82
2024/02/07 05:52:41;;;;;;;0.75;0.75;;;10.00;99.90;;;;;;4905295;29;20303;-81
2024/02/07 05:55:07;;;;;;;0.25;0.25;;;10.00;99.90;;;;;;4906070;29;20052;-83
2024/02/07 05:57:33;;;;;;;0.57;0.57;;;10.00;99.90;;;;;;4915205;29;20043;-82
2024/02/07 06:00:05;;;;;;;0.60;0.60;;;10.00;99.90;;;;;;4909400;29;20032;-84
2024/02/07 06:02:38;;;;;;;0.88;0.88;;;10.00;99.90;;;;;;4919930;29;20071;-81
2024/02/07 06:05:05;;;;;;;1.00;0.88;;;10.00;99.90;;;;;;4913250;29;20028;-82
2024/02/07 06:07:33;;;;;;;1.25;0.90;;;10.00;99.90;;;;;;4874224;29;20052;-84
2024/02/07 06:10:02;;;;;;;0.28;0.28;;;10.00;99.90;;;;;;4906926;29;20036;-82
2024/02/07 06:12:31;;;;;;;1.08;0.80;;;10.00;99.90;;;;;;4904442;29;20048;-83
2024/02/07 06:14:58;;;;;;;1.15;1.02;;;10.00;99.90;;;;;;4898414;29;20036;-83
2024/02/07 06:17:29;;;;;;;0.77;0.68;;;10.00;99.90;;;;;;4899954;29;20047;-80
2024/02/07 06:19:55;;;;;;;0.55;0.40;;;10.00;99.90;;;;;;4912502;29;20036;-82
2024/02/07 06:22:22;;;;;;;0.75;0.63;;;10.00;99.90;;;;;;4908778;29;20051;-82
2024/02/07 06:24:48;;;;;;;2.20;1.23;;;10.00;99.90;;;;;;4904447;29;20389;-82
2024/02/07 06:27:14;;;;;;;0.25;0.25;;;10.00;99.90;;;;;;4903651;29;20043;-82
2024/02/07 06:29:40;;;;;;;2.20;1.63;;;10.00;99.90;;;;;;4914845;29;20059;-82
2024/02/07 06:32:06;;;;;;;0.75;0.75;;;10.00;99.90;;;;;;4911502;29;20039;-82
2024/02/07 06:34:33;;;;;;;3.03;1.00;;;10.00;99.90;;;;;;4905546;29;20386;-83
2024/02/07 06:37:00;;;;;;;0.40;0.40;;;9.90;99.90;;;;;;4901099;29;20418;-82
2024/02/07 06:39:26;;;;;;;2.83;1.35;;;10.00;99.90;;;;;;4911283;29;20040;-80
2024/02/07 06:41:53;;;;;;;0.80;0.80;;;9.90;99.90;;;;;;4910985;29;20039;-81
2024/02/07 06:44:19;;;;;;;7.80;2.40;;;9.90;99.90;;;;;;4907922;29;20048;-83
2024/02/07 06:46:45;;;;;;;1.02;0.50;;;10.00;99.90;;;;;;4901306;29;20118;-82
2024/02/07 06:49:11;;;;;;;0.63;0.60;;;9.90;99.90;;;;;;4907161;29;20377;-83
2024/02/07 06:51:37;;;;;;;0.40;0.40;;;10.00;99.90;;;;;;4909858;29;20037;-83
2024/02/07 06:54:04;;;;;;;0.20;0.20;;;10.00;99.90;;;;;;4908570;29;20028;-84
2024/02/07 06:56:31;;;;;;;0.32;0.32;;;10.00;99.90;;;;;;4903275;29;20394;-82
2024/02/07 06:58:57;;;;;;;1.75;0.77;;;10.00;99.90;;;;;;4915148;29;20051;-84
2024/02/07 07:01:25;;;;;;;0.20;0.20;;;10.00;99.90;;;;;;4914113;29;20047;-84
2024/02/07 07:03:53;;;;;;;1.60;1.50;;;10.00;99.90;;;;;;4909987;29;20492;-84
2024/02/07 07:06:20;;;;;;;0.68;0.68;;;10.00;99.90;;;;;;4904514;29;20048;-83
2024/02/07 07:08:46;;;;;;;0.98;0.93;;;10.00;99.90;;;;;;4903374;29;20044;-83
2024/02/07 07:11:12;;;;;;;0.45;0.45;;;10.00;99.90;;;;;;4895189;29;20040;-83
2024/02/07 07:13:38;;;;;;;2.15;0.90;;;10.00;99.90;;;;;;4908839;29;20047;-83
2024/02/07 07:16:06;;;;;;;0.57;0.57;;;10.00;99.90;;;;;;4906663;29;20037;-82
2024/02/07 07:18:32;;;;;;;0.75;0.75;;;10.00;99.90;;;;;;4902591;29;20032;-84
2024/02/07 07:20:58;;;;;;;2.50;1.58;;;10.00;99.90;;;;;;4899348;29;20130;-85
2024/02/07 07:23:24;;;;;;;1.05;0.82;;;10.00;99.90;;;;;;4900679;29;20470;-83
2024/02/07 07:25:51;;;;;;;1.60;0.70;;;10.00;99.90;;;;;;4905205;29;20043;-87
2024/02/07 07:28:17;;;;;;;0.90;0.85;;;10.00;99.90;;;;;;4909447;29;20036;-82
2024/02/07 07:30:43;;;;;;;0.77;0.77;;;10.00;99.90;;;;;;4903398;29;20045;-85
2024/02/07 07:33:09;;;;;;;0.30;0.30;;;10.00;99.90;;;;;;4900994;29;20032;-83
2024/02/07 07:35:36;;;;;;;0.10;0.10;;;10.00;99.90;;;;;;4903241;29;20036;-83
2024/02/07 07:38:04;;;;;;;0.75;0.60;;;10.00;99.90;;;;;;4907940;29;20480;-83
2024/02/07 07:40:30;;;;;;;3.40;0.65;;;10.00;99.90;;;;;;4900132;29;20031;-84
2024/02/07 07:42:56;;;;;;;1.40;1.30;;;10.00;99.90;;;;;;4906068;29;20525;-84
2024/02/07 07:45:22;;;;;;;2.80;0.82;;;10.00;99.90;;;;;;4911539;29;20138;-85
2024/02/07 07:47:49;;;;;;;2.55;0.45;;;10.10;99.90;;;;;;4905401;29;20036;-82
2024/02/07 07:50:15;;;;;;;0.32;0.30;;;10.10;99.90;;;;;;4907014;29;20378;-81
2024/02/07 07:52:41;;;;;;;0.40;0.40;;;10.10;99.90;;;;;;4905908;29;20044;-82
2024/02/07 07:55:07;;;;;;;0.47;0.40;;;10.10;99.90;;;;;;4902670;29;20059;-81
2024/02/07 07:57:33;;;;;;;3.33;1.25;;;10.00;99.90;;;;;;4904441;29;20036;-81
2024/02/07 07:59:59;;;;;;;0.40;0.38;;;10.10;99.90;;;;;;4909990;29;20043;-86
2024/02/07 08:02:26;;;;;;;0.28;0.28;;;10.10;99.90;;;;;;4911257;29;20051;-80
2024/02/07 08:04:52;;;;;;;1.13;1.10;;;10.10;99.90;;;;;;4903340;29;20051;-81
2024/02/07 08:07:18;;;;;;;0.20;0.20;;;10.10;99.90;;;;;;4907077;29;20064;-80
2024/02/07 08:09:45;;;;;;;0.20;0.20;;;10.10;99.90;;;;;;4903216;29;20427;-80
2024/02/07 08:12:13;;;;;;;0.73;0.73;;;10.10;99.90;;;;;;4910693;29;20048;-81
2024/02/07 08:14:39;;;;;;;1.65;0.65;;;10.10;99.90;;;;;;4916341;29;20047;-81
2024/02/07 08:17:05;;;;;;;0.65;0.45;;;10.10;99.90;;;;;;4909434;29;20040;-80
2024/02/07 08:19:31;;;;;;;0.43;0.43;;;10.20;99.90;;;;;;4908281;29;20488;-83
2024/02/07 08:21:57;;;;;;;1.83;0.90;;;10.20;99.90;;;;;;4902049;29;20417;-80
2024/02/07 08:24:26;;;;;;;2.05;1.20;;;10.20;99.90;;;;;;4905120;29;20036;-79
2024/02/07 08:26:52;;;;;;;0.52;0.40;;;10.20;99.90;;;;;;4904703;29;20044;-79
2024/02/07 08:29:18;;;;;;;1.05;0.52;;;10.20;99.90;;;;;;4907554;29;20048;-80
2024/02/07 08:31:44;;;;;;;0.20;0.20;;;10.20;99.90;;;;;;4909689;29;20048;-79
2024/02/07 08:34:10;;;;;;;1.95;1.38;;;10.30;99.90;;;;;;4901911;29;20048;-80
2024/02/07 08:36:36;;;;;;;0.50;0.50;;;10.20;99.90;;;;;;4897837;29;20041;-81
2024/02/07 08:39:02;;;;;;;1.05;1.05;;;10.30;99.90;;;;;;4907188;29;20449;-80
2024/02/07 08:41:29;;;;;;;0.80;0.80;;;10.30;99.90;;;;;;4905149;29;20067;-80
2024/02/07 08:43:55;;;;;;;0.30;0.30;;;10.20;99.90;;;;;;4906043;29;20037;-80
2024/02/07 08:46:21;;;;;;;0.43;0.43;;;10.30;99.90;;;;;;4901444;29;20044;-79
2024/02/07 08:48:48;;;;;;;0.93;0.43;;;10.30;99.90;;;;;;4902195;29;20071;-79
2024/02/07 08:51:15;;;;;;;0.30;0.30;;;10.30;99.90;;;;;;4902344;29;20044;-79
2024/02/07 08:53:41;;;;;;;2.90;0.68;;;10.30;99.90;;;;;;4908300;29;20048;-79
2024/02/07 08:56:08;;;;;;;0.95;0.80;;;10.30;99.90;;;;;;4907154;29;20048;-79
2024/02/07 08:58:34;;;;;;;0.57;0.57;;;10.30;99.90;;;;;;4897594;29;20052;-79
2024/02/07 09:01:00;;;;;;;0.28;0.28;;;10.30;99.90;;;;;;4912185;29;20382;-79
2024/02/07 09:03:27;;;;;;;0.30;0.28;;;10.30;99.90;;;;;;4909187;29;20044;-79
2024/02/07 09:05:53;;;;;;;0.30;0.30;;;10.40;99.90;;;;;;4897442;29;20454;-79
2024/02/07 09:08:19;;;;;;;1.30;0.45;;;10.40;99.90;;;;;;4903678;29;20052;-80
2024/02/07 09:10:45;;;;;;;0.50;0.50;;;10.40;99.90;;;;;;4903839;29;20052;-79
2024/02/07 09:13:12;;;;;;;0.63;0.47;;;10.40;99.90;;;;;;4917563;29;20461;-79
2024/02/07 09:15:38;;;;;;;0.13;0.13;;;10.40;99.90;;;;;;4910287;29;20374;-79
2024/02/07 09:18:04;;;;;;;0.45;0.45;;;10.40;99.90;;;;;;4909858;29;20047;-79
2024/02/07 09:20:31;;;;;;;1.08;0.75;;;10.40;99.90;;;;;;4911675;29;20044;-79
2024/02/07 09:22:57;;;;;;;0.10;0.10;;;10.40;99.90;;;;;;4910366;29;20033;-80
2024/02/07 09:25:23;;;;;;;0.20;0.20;;;10.40;99.90;;;;;;4908342;29;20056;-78
2024/02/07 09:27:49;;;;;;;15.45;1.08;;;10.40;99.90;;;;;;4910989;29;20055;-79
2024/02/07 09:30:15;;;;;;;5.15;0.68;;;10.40;99.90;;;;;;4911494;29;20044;-80
2024/02/07 09:32:42;;;;;;;0.50;0.50;;;10.40;99.90;;;;;;4908077;29;20048;-79
2024/02/07 09:35:08;;;;;;;0.43;0.43;;;10.50;99.90;;;;;;4915827;29;20517;-78
2024/02/07 09:37:36;;;;;;;0.20;0.20;;;10.50;99.90;;;;;;4907258;29;20048;-80
2024/02/07 09:40:04;;;;;;;1.08;0.82;;;10.50;99.90;;;;;;4903315;29;20052;-80
2024/02/07 09:42:30;;;;;;;6.40;2.63;;;10.50;99.90;;;;;;4911081;29;20055;-80
2024/02/07 09:44:59;;;;;;;0.40;0.40;;;10.50;99.90;;;;;;4903015;29;20064;-79
2024/02/07 09:47:29;;;;;;;2.00;1.02;;;10.50;99.90;;;;;;4914402;29;20044;-81
2024/02/07 09:49:57;;;;;;;1.40;0.50;;;10.60;99.90;;;;;;4902597;29;20641;-80
2024/02/07 09:52:24;;;;;;;0.30;0.30;;;10.60;99.20;;;;;;4918078;29;20047;-79
2024/02/07 09:54:55;;;;;;;0.90;0.50;;;10.70;96.50;;;;;;4900062;29;20040;-80
2024/02/07 09:57:23;;;;;;;0.32;0.32;;;10.70;99.90;;;;;;4909326;29;20048;-79
2024/02/07 09:59:51;;;;;;;7.25;2.75;;;10.60;97.90;;;;;;4909884;29;20473;-80
2024/02/07 10:02:19;;;;;;;0.40;0.40;;;10.70;86.10;;;;;;4900610;29;20051;-80
2024/02/07 10:04:49;;;;;;;0.85;0.40;;;10.70;91.00;;;;;;4906755;29;20036;-80
2024/02/07 10:07:17;;;;;;;0.15;0.15;;;10.70;82.80;;;;;;4918750;29;20052;-79
2024/02/07 10:09:46;;;;;;;0.52;0.52;;;10.70;82.10;;;;;;4915679;29;20051;-79
2024/02/07 10:12:13;;;;;;;0.40;0.40;;;10.80;76.50;;;;;;4898696;29;20048;-80
2024/02/07 10:14:42;;;;;;;0.15;0.15;;;10.80;76.00;;;;;;4912523;29;20058;-81
2024/02/07 10:17:08;;;;;;;0.10;0.10;;;10.80;77.50;;;;;;4900017;29;20033;-79
2024/02/07 10:19:35;;;;;;;0.35;0.25;;;10.80;71.30;;;;;;4900506;29;20041;-80
2024/02/07 10:22:14;;;;;;;1.13;0.85;;;10.80;76.50;;;;;;4904763;29;20450;-80
2024/02/07 10:24:40;;;;;;;0.50;0.35;;;10.80;65.70;;;;;;4886683;29;20053;-80
2024/02/07 10:27:06;;;;;;;0.40;0.40;;;10.80;66.50;;;;;;4888615;29;20048;-81
2024/02/07 10:29:32;;;;;;;2.28;1.02;;;10.80;76.00;;;;;;4911533;29;20044;-80
2024/02/07 10:31:59;;;;;;;0.20;0.20;;;10.80;80.80;;;;;;4909712;29;20047;-81
2024/02/07 10:34:26;;;;;;;0.65;0.65;;;10.80;70.90;;;;;;4899502;29;20410;-78
2024/02/07 10:36:59;;;;;;;0.10;0.10;;;10.90;62.00;;;;;;4906111;29;20051;-79
2024/02/07 10:39:25;;;;;;;0.30;0.30;;;10.90;60.80;;;;;;4902980;29;20053;-78
2024/02/07 10:41:51;;;;;;;1.17;0.43;;;10.90;64.90;;;;;;4888570;29;20044;-80
2024/02/07 10:44:17;;;;;;;0.80;0.63;;;10.90;59.40;;;;;;4907366;29;20036;-79
2024/02/07 10:46:44;;;;;;;0.30;0.30;;;10.90;56.30;;;;;;4906890;29;20043;-80
2024/02/07 10:49:10;;;;;;;0.35;0.35;;;10.80;61.50;;;;;;4911234;29;20041;-79
2024/02/07 10:51:40;;;;;;;0.57;0.43;;;10.90;64.20;;;;;;4906187;29;20031;-79
2024/02/07 10:54:07;;;;;;;0.20;0.20;;;10.90;51.50;;;;;;4907720;29;20028;-81
2024/02/07 10:56:35;;;;;;;0.38;0.38;;;10.90;49.90;;;;;;4898984;29;20056;-80
2024/02/07 10:59:03;;;;;;;0.10;0.10;;;10.90;51.90;;;;;;4909878;29;20037;-80
2024/02/07 11:01:31;;;;;;;0.45;0.45;;;10.90;44.90;;;;;;4905886;29;20051;-78
2024/02/07 11:03:58;;;;;;;0.10;0.10;;;10.90;38.00;;;;;;4909911;29;20032;-78
2024/02/07 11:06:26;;;;;;;0.15;0.15;;;10.90;30.20;;;;;;4905958;29;20055;-80
2024/02/07 11:08:57;;;;;;;0.32;0.32;;;11.00;33.30;;;;;;4907552;29;20048;-79
2024/02/07 11:11:23;;;;;;;;;;;11.00;46.10;;;;;;4921042;29;20051;-79
2024/02/07 11:13:52;;;;;;;0.10;0.10;;;10.90;52.20;;;;;;4903642;29;19921;-80
2024/02/07 11:16:21;;;;;;;0.17;0.17;;;11.00;49.50;;;;;;4907714;29;20036;-79
2024/02/07 11:18:47;;;;;;;0.50;0.50;;;11.00;41.50;;;;;;4913038;29;20039;-79
2024/02/07 11:21:21;;;;;;;0.30;0.30;;;11.00;49.10;;;;;;4910350;29;20037;-78
2024/02/07 11:23:50;;;;;;;3.95;2.63;;;11.00;52.80;;;;;;4905542;29;20051;-79
2024/02/07 11:26:17;;;;;;;0.95;0.55;;;11.00;55.70;;;;;;4909481;29;20033;-79
2024/02/07 11:28:45;;;;;;;2.30;1.92;;;11.00;50.40;;;;;;4897296;29;20041;-80
2024/02/07 11:31:12;;;;;;;1.58;1.48;;;10.90;46.80;;;;;;4911809;29;20037;-80
2024/02/07 11:33:47;;;;;;;0.50;0.50;;;11.00;58.20;;;;;;4908865;29;20028;-79
2024/02/07 11:36:17;;;;;;;0.52;0.43;;;10.90;62.40;;;;;;4913793;29;20035;-81
2024/02/07 11:39:02;;;;;;;0.25;0.25;;;10.90;70.20;;;;;;4903845;29;20052;-80
2024/02/07 11:41:28;;;;;;;0.30;0.30;;;10.90;75.60;;;;;;4904708;29;20040;-79
2024/02/07 11:44:06;;;;;;;0.10;0.10;;;10.90;77.10;;;;;;4912968;29;20047;-79
2024/02/07 11:46:32;;;;;;;0.35;0.30;;;10.90;71.60;;;;;;4907903;29;20036;-79
2024/02/07 11:49:01;;;;;;;0.10;0.10;;;10.90;72.40;;;;;;4905961;29;20382;-78
2024/02/07 11:51:27;;;;;;;0.20;0.20;;;10.90;80.90;;;;;;4902234;29;20481;-79
2024/02/07 11:53:59;;;;;;;0.10;0.10;;;10.90;75.20;;;;;;4912994;29;20396;-78
2024/02/07 11:56:26;;;;;;;0.30;0.30;;;10.90;76.70;;;;;;4906085;29;20450;-80
2024/02/07 11:58:53;;;;;;;0.10;0.10;;;10.90;73.10;;;;;;4902061;29;20035;-80
2024/02/07 12:01:21;;;;;;;0.20;0.20;;;10.90;68.30;;;;;;4905107;29;20036;-80
2024/02/07 12:03:55;;;;;;;0.10;0.10;;;11.00;52.70;;;;;;4909391;29;20043;-80
2024/02/07 12:06:21;;;;;;;0.10;0.10;;;11.00;53.10;;;;;;4908100;29;20044;-80
2024/02/07 12:08:47;;;;;;;0.50;0.35;;;11.00;41.60;;;;;;4902860;29;20482;-81
2024/02/07 12:11:16;;;;;;;2.30;1.75;;;11.00;39.40;;;;;;4907744;29;20059;-80
2024/02/07 12:13:43;;;;;;;0.10;0.10;;;11.00;32.00;;;;;;4904578;29;20052;-80
2024/02/07 12:16:10;;;;;;;0.20;0.20;;;11.00;27.40;;;;;;4885886;29;20397;-79
2024/02/07 12:18:36;;;;;;;0.20;0.20;;;11.10;20.20;;;;;;4906655;29;20036;-80
2024/02/07 12:21:04;;;;;;;0.10;0.10;;;11.10;13.30;;;;;;4908375;29;20028;-80
2024/02/07 12:23:32;;;;;;;0.50;0.47;;;11.10;14.40;;;;;;4904301;29;20066;-79
2024/02/07 12:25:59;;;;;;;0.63;0.63;;;11.10;22.90;;;;;;4905673;29;20028;-79
2024/02/07 12:28:26;;;;;;;0.10;0.10;;;11.10;27.80;;;;;;4904048;29;20039;-80
2024/02/07 12:30:56;;;;;;;2.45;1.30;;;11.10;28.60;;;;;;4902038;29;20044;-79
2024/02/07 12:33:23;;;;;;;0.35;0.32;;;11.10;24.30;;;;;;4912802;29;20057;-80
2024/02/07 12:35:51;;;;;;;0.10;0.10;;;11.10;21.90;;;;;;4905902;29;20047;-81
2024/02/07 12:38:18;;;;;;;0.20;0.20;;;11.10;20.40;;;;;;4906475;29;20040;-82
2024/02/07 12:40:49;;;;;;;0.70;0.50;;;11.10;14.30;;;;;;4909360;29;20044;-80
2024/02/07 12:43:23;;;;;;;0.60;0.60;;;11.10;15.80;;;;;;4904548;29;20056;-80
2024/02/07 12:45:51;;;;;;;0.40;0.30;;;11.10;1.60;;;;;;4903110;29;20032;-79
2024/02/07 12:48:18;;;;;;;0.90;0.73;;;11.10;1.00;;;;;;4905995;29;20043;-78
2024/02/07 12:50:44;;;;;;;0.20;0.20;;;11.10;1.00;;;;;;4912061;29;20040;-80
2024/02/07 12:53:11;;;;;;;0.35;0.35;;;11.10;1.00;;;;;;4899133;29;20044;-79
2024/02/07 12:55:37;;;;;;;0.20;0.20;;;11.10;8.20;;;;;;4909480;29;20033;-78
2024/02/07 12:58:03;;;;;;;0.60;0.40;;;11.10;16.90;;;;;;4904480;29;20028;-80
2024/02/07 13:00:30;;;;;;;0.32;0.32;;;11.10;18.30;;;;;;4904764;29;20049;-82
2024/02/07 13:02:57;;;;;;;0.30;0.30;;;11.10;18.00;;;;;;4893805;29;20410;-81
2024/02/07 13:05:23;;;;;;;0.65;0.45;;;11.10;28.50;;;;;;4907485;29;20049;-79
2024/02/07 13:07:50;;;;;;;1.33;1.23;;;11.10;22.50;;;;;;4912367;29;20413;-79
2024/02/07 13:10:17;;;;;;;0.95;0.50;;;11.10;27.40;;;;;;4907434;29;20497;-78
2024/02/07 13:12:43;;;;;;;0.20;0.20;;;11.10;28.80;;;;;;4904055;29;20469;-79
2024/02/07 13:15:16;;;;;;;0.50;0.50;;;11.10;29.20;;;;;;4894306;29;20047;-80
2024/02/07 13:17:42;;;;;;;0.57;0.25;;;11.00;29.60;;;;;;4897943;29;20045;-79
2024/02/07 13:20:09;;;;;;;0.30;0.30;;;11.00;43.30;;;;;;4904209;29;20044;-79
2024/02/07 13:22:35;;;;;;;0.50;0.43;;;11.00;48.50;;;;;;4909362;29;20032;-79
2024/02/07 13:25:13;;;;;;;0.15;0.15;;;11.00;57.90;;;;;;4903973;29;20033;-81
2024/02/07 13:27:44;;;;;;;31.88;2.45;;;11.00;49.50;;;;;;4912612;29;20051;-79
2024/02/07 13:30:11;;;;;;;0.90;0.70;;;11.00;51.40;;;;;;4903761;29;20201;-79
2024/02/07 13:32:37;;;;;;;0.13;0.13;;;11.00;59.20;;;;;;4899753;29;20450;-81
2024/02/07 13:35:04;;;;;;;0.10;0.10;;;11.00;59.70;;;;;;4903666;29;20370;-79
2024/02/07 13:37:30;;;;;;;0.13;0.13;;;11.00;50.90;;;;;;4899941;29;20036;-80
2024/02/07 13:39:56;;;;;;;0.10;0.10;;;11.00;54.80;;;;;;4915483;29;20457;-81
2024/02/07 13:42:23;;;;;;;0.32;0.32;;;11.00;63.20;;;;;;4905344;29;20056;-80
2024/02/07 13:44:49;;;;;;;0.20;0.20;;;11.00;82.30;;;;;;4904267;29;20036;-87
2024/02/07 13:47:17;;;;;;;0.73;0.55;;;11.00;85.10;;;;;;4906974;29;20049;-79
2024/02/07 13:49:44;;;;;;;0.43;0.43;;;10.90;88.70;;;;;;4911411;29;20118;-79
2024/02/07 13:52:10;;;;;;;0.10;0.10;;;10.90;81.70;;;;;;4903140;29;20070;-80
2024/02/07 13:54:36;;;;;;;0.28;0.28;;;10.90;73.80;;;;;;4899858;29;20044;-80
2024/02/07 13:57:03;;;;;;;0.82;0.82;;;10.90;76.40;;;;;;4904318;29;20029;-80
2024/02/07 13:59:29;;;;;;;0.20;0.20;;;10.90;73.10;;;;;;4908530;29;20470;-79
2024/02/07 14:01:55;;;;;;;0.22;0.22;;;10.90;85.80;;;;;;4911978;29;20036;-79
2024/02/07 14:04:21;;;;;;;1.27;0.93;;;10.90;90.10;;;;;;4910799;29;20043;-81
2024/02/07 14:06:47;;;;;;;0.20;0.20;;;10.90;90.00;;;;;;4907855;29;20044;-80
2024/02/07 14:09:13;;;;;;;0.30;0.30;;;10.90;91.70;;;;;;4910429;29;20036;-79
2024/02/07 14:11:43;;;;;;;0.20;0.20;;;10.90;77.50;;;;;;4911420;29;20040;-79
2024/02/07 14:14:09;;;;;;;0.10;0.10;;;10.90;81.40;;;;;;4919108;29;20036;-79
2024/02/07 14:16:35;;;;;;;0.75;0.75;;;10.90;82.80;;;;;;4908831;29;20032;-80
2024/02/07 14:19:01;;;;;;;1.02;0.60;;;10.90;86.50;;;;;;4911155;29;20044;-79
2024/02/07 14:21:27;;;;;;;1.05;1.05;;;10.90;90.60;;;;;;4910877;29;20044;-79
2024/02/07 14:23:54;;;;;;;0.10;0.10;;;10.90;86.10;;;;;;4901628;29;20052;-81
2024/02/07 14:26:20;;;;;;;0.10;0.10;;;10.90;74.50;;;;;;4901489;29;20036;-79
2024/02/07 14:28:46;;;;;;;0.30;0.30;;;10.90;67.40;;;;;;4904548;29;20032;-80
2024/02/07 14:31:12;;;;;;;0.30;0.30;;;11.00;65.60;;;;;;4909003;29;20067;-80
2024/02/07 14:33:38;;;;;;;0.80;0.40;;;11.00;70.50;;;;;;4896603;29;20032;-80
2024/02/07 14:36:06;;;;;;;0.50;0.35;;;11.00;54.30;;;;;;4917327;29;20495;-82
2024/02/07 14:38:32;;;;;;;0.38;0.38;;;11.00;54.70;;;;;;4909561;29;20048;-78
2024/02/07 14:41:00;;;;;;;0.15;0.15;;;11.00;52.90;;;;;;4902242;29;20393;-81
2024/02/07 14:43:26;;;;;;;0.20;0.20;;;11.00;48.90;;;;;;4908108;29;20040;-79
2024/02/07 14:45:52;;;;;;;0.32;0.32;;;11.00;57.60;;;;;;4907410;29;20036;-80
2024/02/07 14:48:18;;;;;;;0.77;0.75;;;11.00;58.40;;;;;;4904178;29;20044;-80
2024/02/07 14:50:45;;;;;;;0.30;0.30;;;11.10;58.70;;;;;;4897001;29;20059;-79
2024/02/07 14:53:11;;;;;;;0.28;0.28;;;11.00;59.00;;;;;;4905448;29;20039;-81
2024/02/07 14:55:40;;;;;;;0.20;0.20;;;11.00;90.50;;;;;;4909699;29;20032;-80
2024/02/07 14:58:06;;;;;;;0.35;0.30;;;11.00;99.90;;;;;;4907574;29;20043;-80
2024/02/07 15:00:32;;;;;;;0.20;0.20;;;10.90;99.90;;;;;;4909147;29;20043;-81
2024/02/07 15:02:58;;;;;;;1.88;0.40;;;10.80;99.90;;;;;;4916363;29;20043;-79
2024/02/07 15:05:25;;;;;;;0.77;0.77;;;10.70;99.90;;;;;;4918304;29;20454;-79
2024/02/07 15:07:51;;;;;;;2.40;1.48;;;10.70;99.90;;;;;;4901180;29;20044;-80
2024/02/07 15:10:17;;;;;;;0.38;0.38;;;10.60;99.90;;;;;;4918003;29;20505;-78
2024/02/07 15:12:44;;;;;;;0.30;0.30;;;10.60;99.90;;;;;;4917711;29;20028;-80
2024/02/07 15:15:10;;;;;;;5.70;0.95;;;10.60;99.90;;;;;;4917504;29;20400;-80
2024/02/07 15:17:39;;;;;;;1.38;0.55;;;10.50;99.90;;;;;;4915790;29;20366;-80
2024/02/07 15:20:06;;;;;;;0.52;0.50;;;10.60;99.90;;;;;;4912132;29;20405;-80
2024/02/07 15:22:32;;;;;;;1.15;0.75;;;10.50;99.90;;;;;;4906392;29;20039;-79
2024/02/07 15:24:58;;;;;;;1.10;1.00;;;10.60;99.90;;;;;;4906002;29;20405;-81
2024/02/07 15:27:25;;;;;;;2.20;0.68;;;10.50;99.90;;;;;;4913000;29;20036;-79
2024/02/07 15:29:51;;;;;;;0.25;0.25;;;10.50;99.90;;;;;;4915927;29;20051;-79
2024/02/07 15:32:17;;;;;;;0.20;0.20;;;10.50;99.90;;;;;;4905771;29;20566;-78
2024/02/07 15:34:43;;;;;;;0.52;0.52;;;10.50;99.90;;;;;;4898904;29;20382;-80
2024/02/07 15:37:09;;;;;;;1.45;1.30;;;10.50;99.90;;;;;;4903210;29;20034;-79
2024/02/07 15:39:36;;;;;;;1.30;0.80;;;10.50;99.90;;;;;;4905750;29;20095;-82
2024/02/07 15:42:04;;;;;;;1.95;1.00;;;10.50;99.90;;;;;;4906330;29;20036;-80
2024/02/07 15:44:30;;;;;;;1.85;0.77;;;10.50;99.90;;;;;;4910976;29;20044;-79
2024/02/07 15:46:57;;;;;;;0.25;0.20;;;10.40;99.90;;;;;;4892438;29;20055;-87
2024/02/07 15:49:23;;;;;;;0.45;0.43;;;10.40;99.90;;;;;;4911161;29;20465;-79
2024/02/07 15:51:51;;;;;;;0.32;0.32;;;10.40;99.90;;;;;;4902869;29;20055;-80
2024/02/07 15:54:17;;;;;;;0.75;0.75;;;10.40;99.90;;;;;;4906361;29;20150;-78
2024/02/07 15:56:44;;;;;;;0.32;0.32;;;10.40;99.90;;;;;;4900592;29;20066;-80
2024/02/07 15:59:12;;;;;;;0.70;0.60;;;10.40;99.90;;;;;;4911282;29;20064;-79
2024/02/07 16:01:39;;;;;;;0.20;0.20;;;10.40;99.90;;;;;;4911364;29;20389;-79
2024/02/07 16:04:05;;;;;;;0.47;0.45;;;10.30;99.90;;;;;;4912831;29;20029;-79
2024/02/07 16:06:35;;;;;;;0.10;0.10;;;10.20;99.90;;;;;;4905980;29;20044;-80
2024/02/07 16:09:01;;;;;;;0.87;0.57;;;10.20;1.00;;;;;;4916111;29;20043;-79
2024/02/07 16:11:28;;;;;;;2.75;1.70;;;10.10;1.00;;;;;;4911073;29;20113;-79
2024/02/07 16:13:55;;;;;;;0.20;0.20;;;10.00;1.00;;;;;;4910821;29;20033;-78
2024/02/07 16:16:21;;;;;;;0.60;0.45;;;9.90;1.00;;;;;;4899509;29;20039;-79
2024/02/07 16:18:47;;;;;;;0.20;0.20;;;9.80;23.00;;;;;;4915918;29;20040;-78
2024/02/07 16:21:13;;;;;;;0.20;0.20;;;9.80;65.70;;;;;;4907525;29;20049;-79
2024/02/07 16:23:39;;;;;;;0.85;0.75;;;9.70;99.90;;;;;;4907273;29;20371;-80
2024/02/07 16:26:05;;;;;;;1.23;0.80;;;9.60;99.90;;;;;;4906715;29;20024;-79
2024/02/07 16:28:32;;;;;;;0.65;0.65;;;9.60;99.90;;;;;;4901812;29;20036;-80
2024/02/07 16:30:58;;;;;;;12.30;2.70;;;9.50;99.90;;;;;;4907572;29;20470;-80
2024/02/07 16:33:24;;;;;;;0.90;0.85;;;9.50;99.90;;;;;;4909106;29;20040;-79
2024/02/07 16:35:50;;;;;;;0.50;0.50;;;9.40;99.90;;;;;;4912688;29;20039;-79
2024/02/07 16:38:16;;;;;;;0.82;0.80;;;9.30;99.90;;;;;;4899397;29;20040;-79
2024/02/07 16:40:43;;;;;;;1.55;1.20;;;9.20;1.00;;;;;;4908007;29;20481;-79
2024/02/07 16:43:09;;;;;;;2.72;1.65;;;9.20;1.00;;;;;;4914087;29;20036;-78
2024/02/07 16:45:36;;;;;;;6.80;0.45;;;9.20;1.00;;;;;;4912639;29;20032;-80
2024/02/07 16:48:02;;;;;;;1.85;1.27;;;9.20;1.00;;;;;;4898481;29;20161;-80
2024/02/07 16:50:29;;;;;;;0.63;0.43;;;9.10;1.00;;;;;;4898011;29;20044;-80
2024/02/07 16:52:55;;;;;;;4.28;2.03;;;9.10;1.00;;;;;;4913309;29;20039;-78
2024/02/07 16:55:21;;;;;;;0.68;0.68;;;9.00;1.00;;;;;;4901885;29;20036;-78
2024/02/07 16:57:47;;;;;;;0.40;0.40;;;9.00;8.10;;;;;;4906582;29;20113;-80
2024/02/07 17:00:14;;;;;;;0.47;0.47;;;9.00;45.70;;;;;;4905672;29;20055;-80
2024/02/07 17:02:41;;;;;;;6.68;3.80;;;8.90;91.90;;;;;;4917192;29;20040;-92
2024/02/07 17:05:09;;;;;;;8.05;7.32;;;8.90;99.90;;;;;;4912800;29;20390;-91
2024/02/07 17:07:36;;;;;;;4.40;2.70;;;8.80;99.90;;;;;;4906892;29;20048;-90
2024/02/07 17:10:02;;;;;;;0.63;0.57;;;8.80;99.90;;;;;;4914673;29;20041;-85
2024/02/07 17:12:28;;;;;;;2.95;2.67;;;8.80;99.90;;;;;;4912028;29;20388;-91
2024/02/07 17:14:55;;;;;;;1.40;1.30;;;8.70;99.90;;;;;;4914284;29;20039;-89
2024/02/07 17:17:21;;;;;;;0.57;0.57;;;8.80;99.90;;;;;;4911909;29;20051;-91
2024/02/07 17:19:47;;;;;;;0.63;0.63;;;8.70;99.90;;;;;;4914338;29;20040;-90
2024/02/07 17:22:13;;;;;;;3.15;2.20;;;8.60;99.90;;;;;;4913576;29;20059;-90
2024/02/07 17:24:40;;;;;;;1.60;1.25;;;8.70;99.90;;;;;;4914378;29;20040;-92
2024/02/07 17:27:06;;;;;;;0.88;0.82;;;8.70;99.90;;;;;;4916004;29;20033;-84
2024/02/07 17:29:32;;;;;;;0.77;0.63;;;8.70;99.90;;;;;;4908054;29;20489;-90
2024/02/07 17:31:59;;;;;;;0.28;0.28;;;8.60;99.90;;;;;;4903251;29;20051;-91
2024/02/07 17:34:26;;;;;;;1.98;0.82;;;8.70;99.90;;;;;;4917041;29;20024;-89
2024/02/07 17:36:55;;;;;;;1.38;1.00;;;8.60;1.00;;;;;;4929766;29;20051;-85
2024/02/07 17:39:21;;;;;;;1.20;1.10;;;8.60;1.00;;;;;;4929793;28;20025;-86
2024/02/07 17:41:47;;;;;;;0.47;0.47;;;8.60;1.00;;;;;;4928678;28;20038;-89
2024/02/07 17:44:14;;;;;;;1.65;0.70;;;8.60;1.00;;;;;;4916925;29;20047;-90
2024/02/07 17:46:41;;;;;;;2.88;2.17;;;8.60;1.00;;;;;;4923906;29;20048;-86
2024/02/07 17:49:07;;;;;;;0.20;0.20;;;8.60;1.00;;;;;;4922829;29;20048;-81
2024/02/07 17:51:33;;;;;;;0.80;0.80;;;8.60;1.00;;;;;;4923576;28;20049;-89
2024/02/07 17:54:00;;;;;;;1.42;1.33;;;8.60;1.00;;;;;;4922253;29;20031;-91
2024/02/07 17:56:28;;;;;;;5.50;0.70;;;8.60;1.00;;;;;;4920668;29;20488;-89